Santa Barbara, Brazil
Current Conditions -  °F | °C
As of 9:00 AM on Wednesday 26 Nov 2014 (Local Time) from SBBH Reporting Station
Haze Haze  
Wind Chill: 68°   Ceiling: 1000
Heat Index: 68°   Visibility: 2.5mi
Dew Point: 66°   Wind: 3mph
Humidity: 94%   Direction: 20°NNE
Pressure: 30"   Gusts: NA
Location:  19.96°S, 43.42°W
Report Text: SBBH 261100Z 02003KT 4000 BR SCT006 BKN010 OVC100 20/19 Q1016
Loading
Personal Weather Stations






























Interactive Weather Map New forecast layout! Learn more

10-Day Weather Forecast

Advertisements
Track Severe Weather on mobile